Time;durP1;ratioP1;P1;durP2;ratioP2;P2;SDS_P1;SDS_P2;PMS_P1;PMS_P2;Temp;Humidity;BMP_temperature;BMP_pressure;BME280_temperature;BME280_humidity;BME280_pressure;Samples;Min_cycle;Max_cycle;Signal;HPM_P1;HPM_P2
2022/09/17 00:01:23;;;;;;;35.72;11.02;;;9.00;91.70;;;;;;5014223;28;19928;-74
2022/09/17 00:03:57;;;;;;;63.72;20.25;;;8.90;91.60;;;;;;5018337;28;20057;-73
2022/09/17 00:06:25;;;;;;;19.77;5.35;;;8.90;91.70;;;;;;5018380;28;20587;-74
2022/09/17 00:08:53;;;;;;;21.58;4.57;;;8.90;91.80;;;;;;5017029;28;20381;-74
2022/09/17 00:11:24;;;;;;;28.95;8.32;;;8.90;91.80;;;;;;5017366;28;20060;-74
2022/09/17 00:13:53;;;;;;;10.77;1.85;;;8.80;91.90;;;;;;5016640;28;20516;-74
2022/09/17 00:16:49;;;;;;;23.85;5.00;;;8.80;92.00;;;;;;5018097;28;20042;-74
2022/09/17 00:19:21;;;;;;;33.10;8.82;;;8.70;92.00;;;;;;5017861;28;20053;-74
2022/09/17 00:21:49;;;;;;;33.20;9.45;;;8.70;92.10;;;;;;5015991;28;20385;-73
2022/09/17 00:24:18;;;;;;;39.47;11.15;;;8.70;92.10;;;;;;5017490;28;20046;-74
2022/09/17 00:26:46;;;;;;;26.85;7.68;;;8.70;92.20;;;;;;5017034;28;20054;-74
2022/09/17 00:29:14;;;;;;;27.38;7.20;;;8.70;92.30;;;;;;5016664;28;20372;-74
2022/09/17 00:31:42;;;;;;;16.08;3.83;;;9.80;92.60;;;;;;5017878;28;20049;-73
2022/09/17 00:34:11;;;;;;;15.52;3.75;;;8.70;92.40;;;;;;5016592;28;20057;-74
2022/09/17 00:36:38;;;;;;;32.80;7.18;;;8.70;92.40;;;;;;5017998;28;20045;-74
2022/09/17 00:39:08;;;;;;;22.02;5.68;;;9.80;92.60;;;;;;5017457;28;20057;-74
2022/09/17 00:41:37;;;;;;;59.20;17.42;;;8.60;92.40;;;;;;5015763;28;20046;-73
2022/09/17 00:44:42;;;;;;;36.63;8.93;;;8.60;92.50;;;;;;5016982;28;20045;-73
2022/09/17 00:47:35;;;;;;;41.40;10.63;;;8.50;92.60;;;;;;5016757;28;20360;-74
2022/09/17 00:50:11;;;;;;;45.92;10.38;;;8.50;92.90;;;;;;5026985;28;20056;-73
2022/09/17 00:52:51;;;;;;;38.03;9.93;;;8.60;92.80;;;;;;5039772;28;20049;-74
2022/09/17 00:55:32;;;;;;;20.52;5.95;;;8.50;92.80;;;;;;5056149;28;20364;-74
2022/09/17 00:58:02;;;;;;;64.20;19.55;;;8.50;92.80;;;;;;5057377;28;20132;-74
2022/09/17 01:00:30;;;;;;;43.35;12.43;;;8.40;92.80;;;;;;5055837;28;20344;-74
2022/09/17 01:02:59;;;;;;;32.45;9.85;;;8.50;92.80;;;;;;5023368;28;20056;-73
2022/09/17 01:05:35;;;;;;;18.58;5.95;;;8.40;92.90;;;;;;5056919;28;20055;-73
2022/09/17 01:08:33;;;;;;;30.15;7.97;;;8.40;93.00;;;;;;5056136;28;20372;-74
2022/09/17 01:11:28;;;;;;;23.98;6.13;;;8.40;92.90;;;;;;5022970;28;20051;-74
2022/09/17 01:14:29;;;;;;;28.83;8.20;;;8.40;92.90;;;;;;5037389;28;20293;-73
2022/09/17 01:17:24;;;;;;;33.08;9.52;;;8.40;92.90;;;;;;5056513;28;20383;-74
2022/09/17 01:20:13;;;;;;;55.63;14.65;;;8.40;92.90;;;;;;5039334;28;20063;-74
2022/09/17 01:23:18;;;;;;;55.08;15.82;;;8.30;93.00;;;;;;5057097;28;20056;-73
2022/09/17 01:26:17;;;;;;;40.42;11.38;;;8.30;93.10;;;;;;5056535;28;20049;-75
2022/09/17 01:29:14;;;;;;;83.80;21.83;;;8.30;93.20;;;;;;5055391;28;20041;-74
2022/09/17 01:32:10;;;;;;;47.27;11.93;;;8.30;93.40;;;;;;5039121;28;20049;-74
2022/09/17 01:35:07;;;;;;;24.10;5.88;;;8.30;93.40;;;;;;5055190;28;20296;-73
2022/09/17 01:37:59;;;;;;;30.52;8.73;;;8.30;93.40;;;;;;5011579;28;20061;-74
2022/09/17 01:40:32;;;;;;;15.50;4.47;;;8.30;93.40;;;;;;5055141;28;20045;-73
2022/09/17 01:43:12;;;;;;;63.42;19.92;;;8.30;93.40;;;;;;5038516;28;20452;-73
2022/09/17 01:46:01;;;;;;;47.95;15.55;;;8.30;93.50;;;;;;5056438;28;20056;-72
2022/09/17 01:48:33;;;;;;;23.25;6.10;;;8.20;93.60;;;;;;5055334;28;20041;-73
2022/09/17 01:51:15;;;;;;;29.70;8.82;;;8.20;93.90;;;;;;5055882;28;20045;-74
2022/09/17 01:53:48;;;;;;;21.98;6.68;;;8.20;93.90;;;;;;5037783;28;20052;-74
2022/09/17 01:56:23;;;;;;;25.52;7.63;;;8.20;93.90;;;;;;5038819;28;20048;-73
2022/09/17 01:59:01;;;;;;;76.88;26.55;;;8.20;94.00;;;;;;5056143;28;20048;-73
2022/09/17 02:01:31;;;;;;;12.50;3.30;;;8.20;94.10;;;;;;5054686;28;20041;-73
2022/09/17 02:04:22;;;;;;;37.47;11.73;;;8.20;94.20;;;;;;5038235;28;20056;-73
2022/09/17 02:06:57;;;;;;;47.90;15.05;;;8.20;94.20;;;;;;5055737;28;20049;-73
2022/09/17 02:09:48;;;;;;;31.00;9.90;;;8.10;94.20;;;;;;5055741;28;20476;-74
2022/09/17 02:12:23;;;;;;;30.67;10.38;;;8.10;94.40;;;;;;5055684;28;20049;-74
2022/09/17 02:14:54;;;;;;;71.55;23.10;;;8.00;94.50;;;;;;5054866;28;20060;-73
2022/09/17 02:17:37;;;;;;;14.70;3.90;;;8.00;94.50;;;;;;5038300;28;20053;-74
2022/09/17 02:20:06;;;;;;;58.30;17.00;;;8.00;94.70;;;;;;5055315;28;20037;-73
2022/09/17 02:22:41;;;;;;;20.00;5.22;;;8.00;94.70;;;;;;5020653;28;20052;-74
2022/09/17 02:25:41;;;;;;;10.82;2.50;;;7.90;94.70;;;;;;5055405;28;20041;-74
2022/09/17 02:28:23;;;;;;;8.13;2.00;;;7.90;94.90;;;;;;5039973;28;20049;-73
2022/09/17 02:30:50;;;;;;;20.90;4.68;;;7.80;95.00;;;;;;5055107;28;20052;-73
2022/09/17 02:33:19;;;;;;;49.97;15.27;;;7.70;95.20;;;;;;5038504;28;20057;-73
2022/09/17 02:35:46;;;;;;;36.50;10.80;;;7.60;95.30;;;;;;5054057;28;20049;-74
2022/09/17 02:38:25;;;;;;;31.25;8.57;;;7.60;95.30;;;;;;5055457;28;20049;-73
2022/09/17 02:41:20;;;;;;;49.35;14.50;;;7.60;95.50;;;;;;5036885;28;20044;-74
2022/09/17 02:44:10;;;;;;;29.25;7.30;;;7.50;95.60;;;;;;5037825;28;20381;-73
2022/09/17 02:46:40;;;;;;;49.63;12.30;;;7.50;95.60;;;;;;5021581;28;20059;-74
2022/09/17 02:49:22;;;;;;;19.98;5.78;;;7.50;95.80;;;;;;5036274;28;20045;-73
2022/09/17 02:51:54;;;;;;;31.65;7.93;;;7.50;95.80;;;;;;5054762;28;20348;-73
2022/09/17 02:54:41;;;;;;;42.35;11.95;;;7.40;95.80;;;;;;5053635;28;20049;-73
2022/09/17 02:57:15;;;;;;;24.60;7.32;;;7.40;95.80;;;;;;5037435;28;20045;-74
2022/09/17 02:59:51;;;;;;;18.23;3.55;;;7.30;95.90;;;;;;5037447;28;20045;-73
2022/09/17 03:02:22;;;;;;;43.45;14.23;;;7.30;96.10;;;;;;5053612;28;20045;-73
2022/09/17 03:04:50;;;;;;;29.17;6.90;;;7.50;96.20;;;;;;5037609;28;20102;-73
2022/09/17 03:07:20;;;;;;;27.27;5.47;;;7.30;96.30;;;;;;5053579;28;20049;-73
2022/09/17 03:09:48;;;;;;;14.10;4.00;;;7.20;96.20;;;;;;5054739;28;20044;-73
2022/09/17 03:12:16;;;;;;;13.90;3.35;;;7.20;96.30;;;;;;5054945;28;20048;-73
2022/09/17 03:14:43;;;;;;;23.00;5.35;;;7.20;96.30;;;;;;5053582;28;20056;-73
2022/09/17 03:17:11;;;;;;;31.52;8.60;;;7.10;96.40;;;;;;5037597;28;20060;-73
2022/09/17 03:19:39;;;;;;;;;;;7.50;96.60;;;;;;5054763;28;20044;-74
2022/09/17 03:22:06;;;;;;;29.63;8.15;;;7.10;96.60;;;;;;5036167;28;20366;-73
2022/09/17 03:24:34;;;;;;;28.85;8.55;;;7.10;96.60;;;;;;5054639;28;20472;-73
2022/09/17 03:27:01;;;;;;;20.05;4.85;;;7.00;96.60;;;;;;5053280;28;20045;-73
2022/09/17 03:29:29;;;;;;;19.63;4.40;;;7.30;96.80;;;;;;5054990;28;20044;-74
2022/09/17 03:31:56;;;;;;;21.70;5.60;;;6.90;96.80;;;;;;5037631;28;20052;-73
2022/09/17 03:34:24;;;;;;;17.10;4.90;;;7.00;96.90;;;;;;5036185;28;20052;-73
2022/09/17 03:36:51;;;;;;;23.95;6.78;;;7.00;96.90;;;;;;5057183;28;20044;-73
2022/09/17 03:39:19;;;;;;;24.90;6.32;;;6.90;97.00;;;;;;5058625;28;20049;-73
2022/09/17 03:41:46;;;;;;;19.20;5.28;;;6.90;97.10;;;;;;5057677;28;20056;-73
2022/09/17 03:44:14;;;;;;;9.57;2.90;;;7.00;97.10;;;;;;5058542;28;20052;-73
2022/09/17 03:46:41;;;;;;;45.92;12.73;;;6.90;97.10;;;;;;5058408;28;20053;-73
2022/09/17 03:49:09;;;;;;;21.95;4.82;;;6.90;97.20;;;;;;5023201;28;20055;-73
2022/09/17 03:51:37;;;;;;;19.65;5.53;;;6.80;97.20;;;;;;5040938;28;20391;-73
2022/09/17 03:54:05;;;;;;;29.90;7.97;;;7.30;97.40;;;;;;5057203;28;20045;-73
2022/09/17 03:56:32;;;;;;;33.83;8.02;;;6.90;97.30;;;;;;5058259;28;20040;-74
2022/09/17 03:59:00;;;;;;;19.23;5.05;;;6.80;97.30;;;;;;5058037;28;20048;-73
2022/09/17 04:01:28;;;;;;;16.83;3.88;;;6.80;97.40;;;;;;5039527;28;20041;-73
2022/09/17 04:03:56;;;;;;;12.60;3.38;;;6.80;97.50;;;;;;5058157;28;20341;-74
2022/09/17 04:06:23;;;;;;;27.52;5.82;;;6.80;97.60;;;;;;5058035;28;20068;-73
2022/09/17 04:08:52;;;;;;;22.30;5.25;;;6.80;97.60;;;;;;5056700;28;20053;-73
2022/09/17 04:11:19;;;;;;;38.92;9.38;;;6.70;97.70;;;;;;5023846;28;20052;-72
2022/09/17 04:13:47;;;;;;;15.85;3.10;;;6.70;97.70;;;;;;5023152;28;20064;-73
2022/09/17 04:16:15;;;;;;;14.13;3.00;;;6.70;97.70;;;;;;5040350;28;20341;-73
2022/09/17 04:18:42;;;;;;;30.25;6.88;;;6.70;97.80;;;;;;5057682;28;20044;-73
2022/09/17 04:21:10;;;;;;;43.53;8.93;;;6.60;97.90;;;;;;5039016;28;20383;-73
2022/09/17 04:23:37;;;;;;;17.20;4.38;;;6.60;98.00;;;;;;5040864;28;20382;-73
2022/09/17 04:26:05;;;;;;;21.23;5.18;;;6.60;98.00;;;;;;5040493;28;20049;-73
2022/09/17 04:28:32;;;;;;;47.20;11.88;;;6.60;98.20;;;;;;5056628;28;20045;-73
2022/09/17 04:31:00;;;;;;;19.23;4.45;;;6.60;98.20;;;;;;5057384;28;20048;-74
2022/09/17 04:33:28;;;;;;;46.33;10.98;;;6.50;98.50;;;;;;5057454;28;20380;-73
2022/09/17 04:35:55;;;;;;;16.60;4.25;;;6.50;98.40;;;;;;5056514;28;20053;-73
2022/09/17 04:38:23;;;;;;;40.67;8.77;;;6.50;98.50;;;;;;5057589;28;20049;-73
2022/09/17 04:40:51;;;;;;;20.73;5.25;;;6.40;98.50;;;;;;5056160;28;20048;-72
2022/09/17 04:43:18;;;;;;;32.58;7.65;;;7.70;98.80;;;;;;5057565;28;20052;-73
2022/09/17 04:45:47;;;;;;;38.45;8.27;;;7.00;98.80;;;;;;5057388;28;20045;-73
2022/09/17 04:48:15;;;;;;;71.13;17.70;;;6.30;98.70;;;;;;5037304;28;20049;-73
2022/09/17 04:50:43;;;;;;;28.65;7.38;;;6.30;98.80;;;;;;5056982;28;20060;-73
2022/09/17 04:53:11;;;;;;;19.25;4.97;;;6.50;98.90;;;;;;5040194;28;20044;-73
2022/09/17 04:55:38;;;;;;;25.80;5.70;;;6.20;98.90;;;;;;5055891;28;20056;-72
2022/09/17 04:58:06;;;;;;;17.05;4.60;;;6.20;99.00;;;;;;5039472;28;20089;-73
2022/09/17 05:00:34;;;;;;;52.60;13.63;;;6.30;99.10;;;;;;5038861;28;20049;-73
2022/09/17 05:03:02;;;;;;;45.40;11.55;;;6.20;99.20;;;;;;5056782;28;20044;-74
2022/09/17 05:05:29;;;;;;;20.55;5.65;;;6.10;99.10;;;;;;5057041;28;20053;-73
2022/09/17 05:07:57;;;;;;;33.78;6.40;;;6.30;99.30;;;;;;5056111;28;20052;-73
2022/09/17 05:10:25;;;;;;;48.95;12.23;;;6.00;99.30;;;;;;5056634;28;20051;-73
2022/09/17 05:12:55;;;;;;;17.42;5.43;;;6.00;99.30;;;;;;5039546;28;20045;-73
2022/09/17 05:15:24;;;;;;;45.50;10.55;;;6.00;99.50;;;;;;5055491;28;20375;-74
2022/09/17 05:17:51;;;;;;;65.72;16.83;;;5.90;99.70;;;;;;5056556;28;20060;-73
2022/09/17 05:20:19;;;;;;;77.32;23.67;;;6.60;99.90;;;;;;5038540;28;20371;-73
2022/09/17 05:22:50;;;;;;;26.05;6.03;;;5.90;99.80;;;;;;5039503;28;20056;-73
2022/09/17 05:25:22;;;;;;;45.53;12.65;;;6.00;99.90;;;;;;5039197;28;20061;-73
2022/09/17 05:27:52;;;;;;;39.22;12.07;;;5.90;99.90;;;;;;5055345;28;20041;-73
2022/09/17 05:30:20;;;;;;;26.73;9.75;;;6.00;99.90;;;;;;5056432;28;20045;-73
2022/09/17 05:32:48;;;;;;;;;;;6.00;99.90;;;;;;5056703;28;20049;-73
2022/09/17 05:35:15;;;;;;;34.75;12.93;;;5.90;99.90;;;;;;5055197;28;20363;-73
2022/09/17 05:37:43;;;;;;;45.22;14.57;;;5.90;99.90;;;;;;5056171;28;20041;-72
2022/09/17 05:40:10;;;;;;;22.20;6.78;;;5.90;99.90;;;;;;5033485;28;20042;-72
2022/09/17 05:42:38;;;;;;;45.63;14.60;;;6.00;99.90;;;;;;5017835;28;20045;-73
2022/09/17 05:45:06;;;;;;;41.30;15.40;;;6.00;99.90;;;;;;5019009;28;20060;-73
2022/09/17 05:47:34;;;;;;;;;;;5.90;99.90;;;;;;5035890;28;20070;-73
2022/09/17 05:50:01;;;;;;;29.98;10.27;;;6.00;99.90;;;;;;5035911;28;20450;-73
2022/09/17 05:52:29;;;;;;;21.38;8.55;;;6.00;99.90;;;;;;5035899;28;20053;-73
2022/09/17 05:54:56;;;;;;;18.17;7.53;;;5.90;99.90;;;;;;5034932;28;20041;-73
2022/09/17 05:57:27;;;;;;;38.88;16.67;;;6.00;99.90;;;;;;5036318;28;20057;-72
2022/09/17 05:59:54;;;;;;;11.40;4.72;;;6.00;99.90;;;;;;5035638;28;20360;-73
2022/09/17 06:02:22;;;;;;;11.50;3.78;;;6.10;99.90;;;;;;5034664;28;20045;-73
2022/09/17 06:04:50;;;;;;;23.40;10.25;;;6.00;99.90;;;;;;5019130;28;20052;-73
2022/09/17 06:07:17;;;;;;;17.80;7.78;;;6.10;99.90;;;;;;5035448;28;20045;-73
2022/09/17 06:09:45;;;;;;;19.45;9.55;;;6.40;99.90;;;;;;5019222;28;20041;-73
2022/09/17 06:12:12;;;;;;;16.75;5.78;;;6.30;99.90;;;;;;5035569;28;20046;-73
2022/09/17 06:14:40;;;;;;;17.08;6.07;;;7.60;99.90;;;;;;5035059;28;20332;-73
2022/09/17 06:17:07;;;;;;;15.35;7.18;;;6.00;99.90;;;;;;5018415;28;20049;-73
2022/09/17 06:19:35;;;;;;;55.00;24.20;;;6.10;99.90;;;;;;5035601;28;20052;-73
2022/09/17 06:22:04;;;;;;;21.13;8.95;;;6.20;99.90;;;;;;5017095;28;20064;-73
2022/09/17 06:24:32;;;;;;;10.85;3.42;;;6.10;99.90;;;;;;5036015;28;20052;-73
2022/09/17 06:26:59;;;;;;;22.33;8.30;;;6.10;99.90;;;;;;5034431;28;20046;-73
2022/09/17 06:29:27;;;;;;;18.40;6.68;;;6.10;99.90;;;;;;5035764;28;20050;-73
2022/09/17 06:31:54;;;;;;;13.15;6.25;;;6.20;99.90;;;;;;5035355;28;20045;-73
2022/09/17 06:34:22;;;;;;;12.80;4.95;;;6.20;99.90;;;;;;5034790;28;20353;-73
2022/09/17 06:36:50;;;;;;;12.63;4.35;;;6.30;99.90;;;;;;5018755;28;20049;-73
2022/09/17 06:39:17;;;;;;;17.90;7.13;;;6.30;99.90;;;;;;5035190;28;20045;-73
2022/09/17 06:41:45;;;;;;;28.25;9.80;;;6.30;99.90;;;;;;5034260;28;20371;-73
2022/09/17 06:44:15;;;;;;;12.27;5.53;;;6.30;99.90;;;;;;5017898;28;20052;-73
2022/09/17 06:46:43;;;;;;;15.55;6.30;;;6.40;99.90;;;;;;5035075;28;20057;-74
2022/09/17 06:49:10;;;;;;;6.28;2.50;;;6.40;99.90;;;;;;5034569;28;20367;-73
2022/09/17 06:51:38;;;;;;;10.35;3.22;;;6.50;99.90;;;;;;5018284;28;20503;-74
2022/09/17 06:54:05;;;;;;;13.48;5.82;;;6.70;99.90;;;;;;5033546;28;20491;-74
2022/09/17 06:56:33;;;;;;;8.85;2.50;;;6.50;99.90;;;;;;5034787;28;20376;-74
2022/09/17 06:59:01;;;;;;;17.02;5.35;;;6.60;99.90;;;;;;5034708;28;20052;-74
2022/09/17 07:01:28;;;;;;;8.50;2.97;;;6.70;99.90;;;;;;5033888;28;20068;-74
2022/09/17 07:03:56;;;;;;;19.45;7.13;;;6.90;99.90;;;;;;5001266;28;20049;-74
2022/09/17 07:06:24;;;;;;;10.77;3.53;;;6.90;99.90;;;;;;5017404;28;20049;-77
2022/09/17 07:08:51;;;;;;;143.07;28.58;;;6.80;99.90;;;;;;5033382;28;20049;-74
2022/09/17 07:11:19;;;;;;;20.65;6.40;;;7.20;99.90;;;;;;5000390;28;20049;-74
2022/09/17 07:13:47;;;;;;;9.57;1.75;;;7.00;99.90;;;;;;5033784;28;20045;-75
2022/09/17 07:16:14;;;;;;;5.32;1.70;;;7.10;99.90;;;;;;5034575;28;20053;-75
2022/09/17 07:18:42;;;;;;;5.40;1.55;;;7.10;99.90;;;;;;5034272;28;20064;-73
2022/09/17 07:21:12;;;;;;;8.07;2.22;;;8.80;99.90;;;;;;5033495;28;20052;-74
2022/09/17 07:23:40;;;;;;;7.85;2.08;;;7.20;99.90;;;;;;5016828;28;20053;-74
2022/09/17 07:26:13;;;;;;;7.25;1.70;;;7.30;99.90;;;;;;5017317;28;20038;-74
2022/09/17 07:28:42;;;;;;;8.32;2.10;;;7.40;99.90;;;;;;5016171;28;20048;-74
2022/09/17 07:31:11;;;;;;;7.32;1.83;;;7.50;99.90;;;;;;5016915;28;20444;-73
2022/09/17 07:33:44;;;;;;;8.85;2.65;;;7.60;99.90;;;;;;5016067;28;20376;-74
2022/09/17 07:36:13;;;;;;;7.65;1.90;;;7.80;99.90;;;;;;5016759;28;20125;-74
2022/09/17 07:38:41;;;;;;;6.47;1.52;;;7.90;99.90;;;;;;5034269;28;20061;-75
2022/09/17 07:41:14;;;;;;;8.80;1.52;;;8.00;99.90;;;;;;5015788;28;20045;-73
2022/09/17 07:43:44;;;;;;;5.72;1.75;;;8.00;99.90;;;;;;5034257;28;20041;-73
2022/09/17 07:46:17;;;;;;;6.03;1.30;;;9.20;99.90;;;;;;5034182;28;20050;-73
2022/09/17 07:48:46;;;;;;;9.57;2.00;;;9.90;99.90;;;;;;4999728;28;20053;-76
2022/09/17 07:51:23;;;;;;;6.07;1.60;;;8.40;99.50;;;;;;5000643;28;20061;-73
2022/09/17 07:53:56;;;;;;;13.30;1.95;;;8.50;99.30;;;;;;4999664;28;20053;-73
2022/09/17 07:56:26;;;;;;;7.78;2.00;;;8.50;99.20;;;;;;5000877;28;20052;-74
2022/09/17 07:58:54;;;;;;;10.32;1.73;;;8.60;99.10;;;;;;5016816;28;20064;-74
2022/09/17 08:01:22;;;;;;;;;;;8.70;98.80;;;;;;5033476;28;20048;-73
2022/09/17 08:03:50;;;;;;;;;;;8.80;98.70;;;;;;5017344;28;19921;-74
2022/09/17 08:06:29;;;;;;;34.90;9.65;;;8.80;98.60;;;;;;5041431;28;19921;-77
2022/09/17 08:08:58;;;;;;;25.73;5.97;;;9.00;98.50;;;;;;5034924;28;20057;-71
2022/09/17 08:11:28;;;;;;;20.38;4.95;;;9.00;98.40;;;;;;5048290;28;20368;-72
2022/09/17 08:14:16;;;;;;;15.10;3.25;;;9.10;98.30;;;;;;5048508;28;20034;-75
2022/09/17 08:16:45;;;;;;;10.27;2.08;;;9.20;98.10;;;;;;5033630;28;20396;-75
2022/09/17 08:19:13;;;;;;;11.80;3.70;;;9.20;98.00;;;;;;5000241;28;20061;-74
2022/09/17 08:21:40;;;;;;;19.42;3.47;;;9.40;97.90;;;;;;5033459;28;20046;-75
2022/09/17 08:24:08;;;;;;;10.07;2.70;;;9.40;97.80;;;;;;5020651;28;20468;-75
2022/09/17 08:26:36;;;;;;;18.40;2.90;;;9.50;97.90;;;;;;5037590;28;20456;-72
2022/09/17 08:29:04;;;;;;;11.20;2.25;;;9.60;97.80;;;;;;5036632;28;20334;-73
2022/09/17 08:31:32;;;;;;;10.30;2.05;;;9.60;97.60;;;;;;5037795;28;20049;-74
2022/09/17 08:34:00;;;;;;;11.10;1.40;;;9.70;97.50;;;;;;5036721;28;20487;-73
2022/09/17 08:36:27;;;;;;;15.95;3.55;;;9.80;97.40;;;;;;5037586;28;20372;-73
2022/09/17 08:38:55;;;;;;;6.93;1.23;;;9.80;97.40;;;;;;5037480;28;20491;-73
2022/09/17 08:41:38;;;;;;;6.53;1.30;;;9.90;96.60;;;;;;5036299;28;20063;-72
2022/09/17 08:44:21;;;;;;;9.57;1.73;;;10.00;96.50;;;;;;5037429;28;20045;-74
2022/09/17 08:46:52;;;;;;;7.93;1.77;;;10.20;95.60;;;;;;5004101;28;20041;-74
2022/09/17 08:49:46;;;;;;;17.98;2.97;;;10.30;95.00;;;;;;5018862;28;20072;-73
2022/09/17 08:52:36;;;;;;;10.90;1.52;;;10.40;94.70;;;;;;5019535;28;20041;-75
2022/09/17 08:55:17;;;;;;;13.52;2.75;;;10.50;94.40;;;;;;5035807;28;20045;-73
2022/09/17 08:57:54;;;;;;;6.30;1.17;;;10.60;94.10;;;;;;5019969;28;20042;-75
2022/09/17 09:00:23;;;;;;;8.02;1.50;;;10.70;93.70;;;;;;5035892;28;20422;-75
2022/09/17 09:03:12;;;;;;;8.80;2.33;;;10.90;92.80;;;;;;5019534;28;20045;-76
2022/09/17 09:05:46;;;;;;;19.42;5.47;;;11.00;91.70;;;;;;5003748;28;20475;-74
2022/09/17 09:08:37;;;;;;;14.63;3.13;;;11.10;91.90;;;;;;5018481;28;20058;-75
2022/09/17 09:11:18;;;;;;;8.15;2.45;;;11.20;91.40;;;;;;5020086;28;20045;-75
2022/09/17 09:13:52;;;;;;;7.50;1.20;;;11.30;91.20;;;;;;5035930;28;20052;-74
2022/09/17 09:16:25;;;;;;;11.10;2.20;;;11.70;91.60;;;;;;5019618;28;20046;-74
2022/09/17 09:18:55;;;;;;;8.20;1.80;;;11.80;91.30;;;;;;5036724;28;20443;-74
2022/09/17 09:21:29;;;;;;;11.27;2.13;;;11.70;91.00;;;;;;5018021;28;20041;-76
2022/09/17 09:24:21;;;;;;;5.47;1.27;;;12.50;90.80;;;;;;5019513;28;20364;-75
2022/09/17 09:27:13;;;;;;;8.43;1.42;;;11.70;89.30;;;;;;5003285;28;20041;-74
2022/09/17 09:30:08;;;;;;;6.03;1.23;;;11.80;88.80;;;;;;5019115;28;20488;-75
2022/09/17 09:32:57;;;;;;;8.63;2.17;;;11.80;88.50;;;;;;5036501;28;20056;-75
2022/09/17 09:35:27;;;;;;;7.15;2.03;;;11.90;88.70;;;;;;5034778;28;20376;-75
2022/09/17 09:38:11;;;;;;;7.40;1.30;;;11.90;88.60;;;;;;5018917;28;20045;-75
2022/09/17 09:40:53;;;;;;;7.55;1.20;;;12.00;89.10;;;;;;5035546;28;20046;-75
2022/09/17 09:43:23;;;;;;;7.18;1.08;;;12.10;89.00;;;;;;5036268;28;20064;-74
2022/09/17 09:46:20;;;;;;;6.28;1.33;;;12.30;88.90;;;;;;5021332;28;20041;-74
2022/09/17 09:48:57;;;;;;;5.15;0.95;;;12.20;88.30;;;;;;5037519;28;20052;-73
2022/09/17 09:51:46;;;;;;;4.90;0.80;;;12.20;89.40;;;;;;5056215;28;20049;-74
2022/09/17 09:54:43;;;;;;;8.25;1.55;;;12.20;87.90;;;;;;5054704;28;20075;-73
2022/09/17 09:57:16;;;;;;;7.00;1.20;;;12.20;88.90;;;;;;5038621;28;20048;-73
2022/09/17 09:59:44;;;;;;;6.07;1.10;;;12.40;88.50;;;;;;5055949;28;20036;-74
2022/09/17 10:02:11;;;;;;;3.97;1.02;;;12.60;88.60;;;;;;5037435;28;20045;-74
2022/09/17 10:04:39;;;;;;;8.23;1.40;;;12.50;88.60;;;;;;5038895;28;20053;-75
2022/09/17 10:07:10;;;;;;;13.52;2.28;;;12.60;89.50;;;;;;5054418;28;20045;-76
2022/09/17 10:09:43;;;;;;;7.63;1.27;;;12.60;89.40;;;;;;5056187;28;20084;-74
2022/09/17 10:12:11;;;;;;;3.28;1.10;;;12.70;88.40;;;;;;5038196;28;20080;-74
2022/09/17 10:14:40;;;;;;;8.35;1.70;;;12.70;87.80;;;;;;5054432;28;20052;-74
2022/09/17 10:17:25;;;;;;;4.57;1.20;;;13.10;87.50;;;;;;5038217;28;20045;-74
2022/09/17 10:19:58;;;;;;;13.23;3.70;;;12.90;87.10;;;;;;5056112;28;20045;-73
2022/09/17 10:22:34;;;;;;;6.35;0.80;;;12.90;87.50;;;;;;5020500;28;20444;-75
2022/09/17 10:25:04;;;;;;;5.75;0.70;;;13.00;86.40;;;;;;5055303;28;20371;-74
2022/09/17 10:27:35;;;;;;;5.97;1.20;;;13.00;84.50;;;;;;5054392;28;20048;-74
2022/09/17 10:30:24;;;;;;;4.90;1.13;;;13.20;86.20;;;;;;5021069;28;20056;-73
2022/09/17 10:33:21;;;;;;;4.68;0.85;;;13.20;86.00;;;;;;5038265;28;20052;-74
2022/09/17 10:35:57;;;;;;;6.45;0.80;;;13.20;84.80;;;;;;5036925;28;20408;-74
2022/09/17 10:38:35;;;;;;;7.60;1.02;;;13.20;83.70;;;;;;5037529;28;20056;-75
2022/09/17 10:41:20;;;;;;;7.07;1.30;;;13.30;84.00;;;;;;5036264;28;20045;-74
2022/09/17 10:43:49;;;;;;;12.23;2.45;;;13.50;84.00;;;;;;5021166;28;20048;-74
2022/09/17 10:46:29;;;;;;;4.28;1.10;;;13.30;84.20;;;;;;5054087;28;20053;-75
2022/09/17 10:49:10;;;;;;;6.82;1.73;;;13.50;84.40;;;;;;5036566;28;20067;-74
2022/09/17 10:51:38;;;;;;;6.22;1.33;;;13.50;83.30;;;;;;5055143;28;20052;-74
2022/09/17 10:54:18;;;;;;;9.55;1.20;;;13.60;82.50;;;;;;5053993;28;20049;-73
2022/09/17 10:56:56;;;;;;;31.52;10.32;;;13.60;82.80;;;;;;5037382;28;20052;-74
2022/09/17 10:59:41;;;;;;;10.50;4.20;;;13.80;84.20;;;;;;5021152;28;20045;-74
2022/09/17 11:02:21;;;;;;;5.85;1.90;;;13.70;84.20;;;;;;5053678;28;20053;-74
2022/09/17 11:04:58;;;;;;;5.72;1.38;;;13.70;83.70;;;;;;5037401;28;20041;-74
2022/09/17 11:07:47;;;;;;;6.50;1.20;;;13.80;83.10;;;;;;5053616;28;20068;-75
2022/09/17 11:10:24;;;;;;;4.50;0.70;;;13.90;82.70;;;;;;5020854;28;20049;-74
2022/09/17 11:13:23;;;;;;;2.67;0.82;;;13.90;82.80;;;;;;5054551;28;20041;-73
2022/09/17 11:15:59;;;;;;;8.45;2.28;;;14.00;82.20;;;;;;5036222;28;20041;-75
2022/09/17 11:18:45;;;;;;;9.75;2.97;;;14.10;82.40;;;;;;5054736;28;20044;-74
2022/09/17 11:21:20;;;;;;;8.30;2.88;;;14.10;82.40;;;;;;5036216;28;20044;-74
2022/09/17 11:24:12;;;;;;;3.70;1.00;;;14.30;82.70;;;;;;5037441;28;20052;-75
2022/09/17 11:27:00;;;;;;;6.47;1.30;;;14.30;82.20;;;;;;5037156;28;20456;-75
2022/09/17 11:29:49;;;;;;;3.38;0.90;;;14.40;82.30;;;;;;5054806;28;20372;-74
2022/09/17 11:32:57;;;;;;;5.88;1.40;;;14.60;82.20;;;;;;5020941;28;20372;-74
2022/09/17 11:35:38;;;;;;;5.88;0.98;;;14.60;80.70;;;;;;5036234;28;20055;-75
2022/09/17 11:38:14;;;;;;;5.10;1.00;;;14.60;80.90;;;;;;5037286;28;20045;-75
2022/09/17 11:40:47;;;;;;;4.43;0.60;;;14.70;81.00;;;;;;5035841;28;20502;-74
2022/09/17 11:43:31;;;;;;;2.97;0.70;;;14.70;81.20;;;;;;5036900;28;20049;-75
2022/09/17 11:46:04;;;;;;;6.05;0.75;;;14.70;80.80;;;;;;5055037;28;20352;-75
2022/09/17 11:48:43;;;;;;;2.88;0.80;;;14.60;80.50;;;;;;5053345;28;20052;-75
2022/09/17 11:51:31;;;;;;;2.50;0.50;;;14.70;81.00;;;;;;5016717;28;20049;-75
2022/09/17 11:54:15;;;;;;;4.30;0.90;;;14.70;80.30;;;;;;5033491;28;20051;-75
2022/09/17 11:56:46;;;;;;;4.88;0.98;;;14.80;80.00;;;;;;5034375;28;20357;-75
2022/09/17 11:59:34;;;;;;;3.83;0.70;;;14.80;80.50;;;;;;5038317;28;20407;-76
2022/09/17 12:02:08;;;;;;;5.70;0.70;;;14.90;80.00;;;;;;5037286;28;20045;-75
2022/09/17 12:04:55;;;;;;;5.22;0.85;;;14.70;80.20;;;;;;5038276;28;20064;-75
2022/09/17 12:07:34;;;;;;;3.70;0.98;;;14.80;80.40;;;;;;5037164;28;20049;-77
2022/09/17 12:10:42;;;;;;;3.25;0.90;;;14.80;79.60;;;;;;5037011;28;20049;-76
2022/09/17 12:13:17;;;;;;;6.05;1.00;;;14.90;79.80;;;;;;5038083;28;20056;-75
2022/09/17 12:16:10;;;;;;;2.33;0.68;;;15.00;80.80;;;;;;5036978;28;20048;-76
2022/09/17 12:18:50;;;;;;;3.38;0.80;;;15.20;79.10;;;;;;5020567;28;20061;-76
2022/09/17 12:21:28;;;;;;;4.32;0.70;;;15.00;80.20;;;;;;5035999;28;20460;-76
2022/09/17 12:24:17;;;;;;;4.70;0.80;;;15.00;79.10;;;;;;5037144;28;20057;-76
2022/09/17 12:27:07;;;;;;;3.58;0.75;;;15.00;79.20;;;;;;5037582;28;20065;-77
2022/09/17 12:30:12;;;;;;;5.15;0.93;;;15.10;79.20;;;;;;5037946;28;20054;-75
2022/09/17 12:32:49;;;;;;;3.67;0.68;;;15.20;79.20;;;;;;5036810;28;20057;-76
2022/09/17 12:35:41;;;;;;;2.63;0.77;;;15.20;78.90;;;;;;5036393;28;20045;-74
2022/09/17 12:38:53;;;;;;;4.28;0.90;;;15.30;78.90;;;;;;5037665;28;20048;-74
2022/09/17 12:41:30;;;;;;;5.65;0.70;;;15.40;78.40;;;;;;5035362;28;20053;-75
2022/09/17 12:44:22;;;;;;;6.70;0.90;;;15.40;77.30;;;;;;5036812;28;20041;-75
2022/09/17 12:47:17;;;;;;;4.82;0.85;;;15.40;78.00;;;;;;5036597;28;20488;-73
2022/09/17 12:49:48;;;;;;;5.25;0.90;;;15.40;77.70;;;;;;5036217;28;20053;-74
2022/09/17 12:52:52;;;;;;;5.82;0.68;;;15.50;77.90;;;;;;5037602;28;20045;-77
2022/09/17 12:55:43;;;;;;;5.32;1.23;;;15.50;77.30;;;;;;5018067;28;20053;-74
2022/09/17 12:58:44;;;;;;;3.30;0.88;;;15.60;77.60;;;;;;5036884;28;20049;-75
2022/09/17 13:01:32;;;;;;;4.05;0.82;;;15.70;76.80;;;;;;5035310;28;20037;-75
2022/09/17 13:04:46;;;;;;;4.38;0.55;;;16.00;77.70;;;;;;5036141;28;20388;-75
2022/09/17 13:07:56;;;;;;;4.47;0.70;;;15.90;76.50;;;;;;5018762;28;20064;-74
2022/09/17 13:10:26;;;;;;;;;;;15.70;76.00;;;;;;5035828;28;20049;-74
2022/09/17 13:13:05;;;;;;;3.13;0.90;;;15.80;76.70;;;;;;5036725;28;20275;-74
2022/09/17 13:15:59;;;;;;;8.55;1.20;;;15.90;76.60;;;;;;5035820;28;20042;-75
2022/09/17 13:18:42;;;;;;;4.20;1.00;;;16.00;77.00;;;;;;5019693;28;20038;-75
2022/09/17 13:21:40;;;;;;;4.07;0.90;;;16.10;76.20;;;;;;5035636;28;20042;-75
2022/09/17 13:24:30;;;;;;;3.95;1.00;;;16.20;75.90;;;;;;5019704;28;20372;-74
2022/09/17 13:27:04;;;;;;;4.30;0.65;;;16.30;76.00;;;;;;5034634;28;20067;-75
2022/09/17 13:29:45;;;;;;;3.42;1.13;;;16.30;75.10;;;;;;5036050;28;20049;-74
2022/09/17 13:32:31;;;;;;;3.15;0.70;;;16.40;75.50;;;;;;5036041;28;20058;-74